createdAt,value
2022-11-09T00:00:19.979Z,17.13
2022-11-09T00:02:47.132Z,17.20
2022-11-09T00:05:18.172Z,18.30
2022-11-09T00:07:46.283Z,17.75
2022-11-09T00:10:10.950Z,17.77
2022-11-09T00:12:36.550Z,18.82
2022-11-09T00:15:02.476Z,18.23
2022-11-09T00:17:31.157Z,17.92
2022-11-09T00:19:59.427Z,14.47
2022-11-09T00:22:25.656Z,13.07
2022-11-09T00:24:51.142Z,13.30
2022-11-09T00:27:17.881Z,15.40
2022-11-09T00:29:43.310Z,18.88
2022-11-09T00:32:08.119Z,19.18
2022-11-09T00:34:35.321Z,13.32
2022-11-09T00:37:00.968Z,13.58
2022-11-09T00:39:25.687Z,12.80
2022-11-09T00:41:49.437Z,16.83
2022-11-09T00:44:13.570Z,15.13
2022-11-09T00:46:38.317Z,14.80
2022-11-09T00:49:03.276Z,18.08
2022-11-09T00:51:27.809Z,16.02
2022-11-09T00:53:55.118Z,18.07
2022-11-09T00:56:22.004Z,17.57
2022-11-09T00:58:46.392Z,18.25
2022-11-09T01:01:15.572Z,18.17
2022-11-09T01:03:40.568Z,18.62
2022-11-09T01:06:05.435Z,17.53
2022-11-09T01:08:29.843Z,17.63
2022-11-09T01:10:55.957Z,19.00
2022-11-09T01:13:40.684Z,18.03
2022-11-09T01:16:09.332Z,20.57
2022-11-09T01:18:37.890Z,17.93
2022-11-09T01:21:04.540Z,19.57
2022-11-09T01:23:30.039Z,18.52
2022-11-09T01:26:00.541Z,17.20
2022-11-09T01:28:27.060Z,18.37
2022-11-09T01:30:53.819Z,18.47
2022-11-09T01:33:19.653Z,16.62
2022-11-09T01:35:47.621Z,19.25
2022-11-09T01:38:12.919Z,17.27
2022-11-09T01:40:40.788Z,16.33
2022-11-09T01:43:13.532Z,19.00
2022-11-09T01:45:40.263Z,16.20
2022-11-09T01:49:53.503Z,17.60
2022-11-09T01:52:34.164Z,18.85
2022-11-09T01:55:13.080Z,17.97
2022-11-09T01:57:46.834Z,18.77
2022-11-09T02:00:16.703Z,18.80
2022-11-09T02:02:47.620Z,14.87
2022-11-09T02:05:29.801Z,16.23
2022-11-09T02:07:58.899Z,15.85
2022-11-09T02:11:59.850Z,16.40
2022-11-09T02:14:30.637Z,16.55
2022-11-09T02:16:56.347Z,15.47
2022-11-09T02:19:24.809Z,18.68
2022-11-09T02:22:22.573Z,17.55
2022-11-09T02:24:52.836Z,14.75
2022-11-09T02:26:14.854Z,14.05
2022-11-09T02:28:43.133Z,15.32
2022-11-09T02:31:14.680Z,16.80
2022-11-09T02:33:46.424Z,19.93
2022-11-09T02:36:18.399Z,17.35
2022-11-09T02:38:46.933Z,16.92
2022-11-09T02:41:18.229Z,16.02
2022-11-09T02:43:44.716Z,19.52
2022-11-09T02:46:13.538Z,18.48
2022-11-09T02:48:39.076Z,16.95
2022-11-09T02:51:04.057Z,15.43
2022-11-09T02:53:28.583Z,16.00
2022-11-09T02:55:53.987Z,18.93
2022-11-09T02:58:18.361Z,18.07
2022-11-09T03:00:43.778Z,17.03
2022-11-09T03:03:10.888Z,16.82
2022-11-09T03:05:35.620Z,16.30
2022-11-09T03:08:02.769Z,19.57
2022-11-09T03:10:30.385Z,22.70
2022-11-09T03:12:55.804Z,21.20
2022-11-09T03:15:25.552Z,20.36
2022-11-09T03:17:51.208Z,21.83
2022-11-09T03:20:15.704Z,22.18
2022-11-09T03:22:41.185Z,20.15
2022-11-09T03:25:08.365Z,21.73
2022-11-09T03:27:33.352Z,17.68
2022-11-09T03:29:58.265Z,18.83
2022-11-09T03:32:22.778Z,20.33
2022-11-09T03:34:48.720Z,18.17
2022-11-09T03:38:25.133Z,21.13
2022-11-09T03:40:50.817Z,18.20
2022-11-09T03:43:17.093Z,18.82
2022-11-09T03:45:44.517Z,18.60
2022-11-09T03:48:09.744Z,19.52
2022-11-09T03:50:35.932Z,21.65
2022-11-09T03:53:00.623Z,19.35
2022-11-09T03:55:45.026Z,22.07
2022-11-09T03:58:13.091Z,19.65
2022-11-09T03:59:22.709Z,19.82
2022-11-09T04:01:47.848Z,19.02
2022-11-09T04:04:12.507Z,18.17
2022-11-09T04:06:37.301Z,18.47
2022-11-09T04:09:04.319Z,19.15
2022-11-09T04:11:29.514Z,17.98
2022-11-09T04:13:54.131Z,18.32
2022-11-09T04:16:18.986Z,18.55
2022-11-09T04:18:45.466Z,17.80
2022-11-09T04:21:09.623Z,16.97
2022-11-09T04:23:34.743Z,17.87
2022-11-09T04:26:00.557Z,18.47
2022-11-09T04:28:25.455Z,16.82
2022-11-09T04:30:50.148Z,17.10
2022-11-09T04:33:14.668Z,19.47
2022-11-09T04:35:40.444Z,17.00
2022-11-09T04:38:08.341Z,17.08
2022-11-09T04:40:36.666Z,16.90
2022-11-09T04:43:03.307Z,16.75
2022-11-09T04:46:37.851Z,16.57
2022-11-09T04:49:02.642Z,16.68
2022-11-09T04:51:28.055Z,16.68
2022-11-09T04:53:53.284Z,15.60
2022-11-09T04:56:17.070Z,15.12
2022-11-09T04:58:40.820Z,15.77
2022-11-09T05:01:13.046Z,15.07
2022-11-09T05:03:39.499Z,15.87
2022-11-09T05:06:08.147Z,11.15
2022-11-09T05:08:32.010Z,10.10
2022-11-09T05:10:58.580Z,11.20
2022-11-09T05:13:23.307Z,12.48
2022-11-09T05:15:47.304Z,14.08
2022-11-09T05:18:12.109Z,15.46
2022-11-09T05:20:37.304Z,16.86
2022-11-09T05:23:20.360Z,15.27
2022-11-09T05:25:45.302Z,14.45
2022-11-09T05:28:09.840Z,13.95
2022-11-09T05:30:35.325Z,15.03
2022-11-09T05:33:02.607Z,15.30
2022-11-09T05:35:29.717Z,11.95
2022-11-09T05:37:53.462Z,17.70
2022-11-09T05:40:21.418Z,34.22
2022-11-09T05:42:46.542Z,11.37
2022-11-09T05:45:40.945Z,10.00
2022-11-09T05:50:26.778Z,10.03
2022-11-09T05:52:54.890Z,8.55
2022-11-09T05:54:03.854Z,9.87
2022-11-09T05:55:14.583Z,11.05
2022-11-09T05:56:23.508Z,10.60
2022-11-09T05:58:48.097Z,12.72
2022-11-09T05:59:57.118Z,12.57
2022-11-09T06:02:25.420Z,13.42
2022-11-09T06:04:51.240Z,9.70
2022-11-09T06:06:08.079Z,9.78
2022-11-09T06:08:30.273Z,10.78
2022-11-09T06:12:20.217Z,9.70
2022-11-09T06:14:46.106Z,8.43
2022-11-09T06:17:12.080Z,8.97
2022-11-09T06:18:22.763Z,10.45
2022-11-09T06:21:06.592Z,9.17
2022-11-09T06:23:31.136Z,11.02
2022-11-09T06:24:40.821Z,9.65
2022-11-09T06:27:05.965Z,9.03
2022-11-09T06:28:14.613Z,10.45
2022-11-09T06:29:23.388Z,10.58
2022-11-09T06:30:32.227Z,8.92
2022-11-09T06:31:43.102Z,9.98
2022-11-09T06:34:08.793Z,11.68
2022-11-09T06:36:33.728Z,10.68
2022-11-09T06:37:43.457Z,11.28
2022-11-09T06:38:53.357Z,10.57
2022-11-09T06:40:02.540Z,8.85
2022-11-09T06:41:11.290Z,10.12
2022-11-09T06:42:20.508Z,9.18
2022-11-09T06:43:29.573Z,8.82
2022-11-09T06:44:39.499Z,9.60
2022-11-09T06:47:03.381Z,9.10
2022-11-09T06:48:13.098Z,9.73
2022-11-09T06:50:44.284Z,11.27
2022-11-09T06:53:12.381Z,15.15
2022-11-09T06:54:21.033Z,12.07
2022-11-09T06:55:31.908Z,11.38
2022-11-09T06:56:41.626Z,11.45
2022-11-09T06:57:50.807Z,12.80
2022-11-09T06:58:59.452Z,12.82
2022-11-09T07:01:28.789Z,14.58
2022-11-09T07:03:52.340Z,13.77
2022-11-09T07:05:02.160Z,16.05
2022-11-09T07:06:13.541Z,26.22
2022-11-09T07:08:38.553Z,14.68
2022-11-09T07:12:43.388Z,14.78
2022-11-09T07:15:10.255Z,14.98
2022-11-09T07:17:40.231Z,14.00
2022-11-09T07:18:53.434Z,14.30
2022-11-09T07:20:03.398Z,13.82
2022-11-09T07:22:29.976Z,11.57
2022-11-09T07:23:42.381Z,14.15
2022-11-09T07:24:55.431Z,11.38
2022-11-09T07:26:04.561Z,10.67
2022-11-09T07:27:14.265Z,15.60
2022-11-09T07:28:22.887Z,11.87
2022-11-09T07:29:31.607Z,11.00
2022-11-09T07:32:03.439Z,12.22
2022-11-09T07:34:34.660Z,11.77
2022-11-09T07:36:58.944Z,10.05
2022-11-09T07:38:09.811Z,10.57
2022-11-09T07:40:28.355Z,13.10
2022-11-09T07:42:52.066Z,10.82
2022-11-09T07:44:01.243Z,11.87
2022-11-09T07:46:28.642Z,12.67
2022-11-09T07:47:37.657Z,10.42
2022-11-09T07:50:01.405Z,10.07
2022-11-09T07:51:11.252Z,9.95
2022-11-09T07:52:20.099Z,9.53
2022-11-09T07:54:48.235Z,11.47
2022-11-09T07:55:59.851Z,10.50
2022-11-09T07:57:08.911Z,11.15
2022-11-09T07:58:18.980Z,13.12
2022-11-09T08:00:43.657Z,10.47
2022-11-09T08:01:53.124Z,9.33
2022-11-09T08:03:03.999Z,9.58
2022-11-09T08:05:29.868Z,9.85
2022-11-09T08:06:39.309Z,7.87
2022-11-09T08:07:49.342Z,9.48
2022-11-09T08:08:59.586Z,9.68
2022-11-09T08:11:27.248Z,10.50
2022-11-09T08:13:51.105Z,9.42
2022-11-09T08:15:01.948Z,9.47
2022-11-09T08:17:26.234Z,11.63
2022-11-09T08:18:35.930Z,8.58
2022-11-09T08:21:03.578Z,9.75
2022-11-09T08:23:28.255Z,9.40
2022-11-09T08:24:37.435Z,10.93
2022-11-09T08:25:48.436Z,8.95
2022-11-09T08:28:15.665Z,9.25
2022-11-09T08:30:39.813Z,10.67
2022-11-09T08:31:53.012Z,8.95
2022-11-09T08:33:03.260Z,10.52
2022-11-09T08:35:29.848Z,9.13
2022-11-09T08:37:55.522Z,9.97
2022-11-09T08:41:38.056Z,9.67
2022-11-09T08:42:47.778Z,11.75
2022-11-09T08:45:13.432Z,13.33
2022-11-09T08:46:22.849Z,11.12
2022-11-09T08:48:47.800Z,8.72
2022-11-09T08:51:11.376Z,8.98
2022-11-09T08:53:35.217Z,10.13
2022-11-09T08:54:44.072Z,9.15
2022-11-09T08:57:08.291Z,8.95
2022-11-09T08:58:19.129Z,7.60
2022-11-09T09:00:47.437Z,7.53
2022-11-09T09:02:00.665Z,7.23
2022-11-09T09:04:26.860Z,8.35
2022-11-09T09:05:37.865Z,7.80
2022-11-09T09:08:03.852Z,7.45
2022-11-09T09:10:29.215Z,10.78
2022-11-09T09:11:37.848Z,7.07
2022-11-09T09:12:47.424Z,8.35
2022-11-09T09:15:12.441Z,10.12
2022-11-09T09:17:37.258Z,7.52
2022-11-09T09:18:49.188Z,7.53
2022-11-09T09:19:57.801Z,7.27
2022-11-09T09:21:14.272Z,8.77
2022-11-09T09:22:25.088Z,6.15
2022-11-09T09:24:53.030Z,6.50
2022-11-09T09:27:23.051Z,7.30
2022-11-09T09:28:33.265Z,7.23
2022-11-09T09:29:44.626Z,5.23
2022-11-09T09:30:53.966Z,6.28
2022-11-09T09:33:37.568Z,7.03
2022-11-09T09:34:46.918Z,7.02
2022-11-09T09:37:13.558Z,6.10
2022-11-09T09:38:24.167Z,10.45
2022-11-09T09:40:44.930Z,6.78
2022-11-09T09:43:17.083Z,9.17
2022-11-09T09:45:54.396Z,15.22
2022-11-09T09:48:56.934Z,11.06
2022-11-09T09:51:44.425Z,6.50
2022-11-09T09:54:21.648Z,6.52
2022-11-09T09:55:42.896Z,6.78
2022-11-09T09:58:31.593Z,6.52
2022-11-09T10:02:24.347Z,7.32
2022-11-09T10:03:34.276Z,5.85
2022-11-09T10:04:43.729Z,8.10
2022-11-09T10:06:04.071Z,6.45
2022-11-09T10:08:59.103Z,7.12
2022-11-09T10:11:31.690Z,6.63
2022-11-09T10:12:56.885Z,7.80
2022-11-09T10:15:35.691Z,8.37
2022-11-09T10:18:33.637Z,8.57
2022-11-09T10:20:15.663Z,5.32
2022-11-09T10:21:43.795Z,7.78
2022-11-09T10:27:35.832Z,7.10
2022-11-09T10:29:14.426Z,6.97
2022-11-09T10:30:02.062Z,5.95
2022-11-09T10:32:33.009Z,8.40
2022-11-09T10:33:43.880Z,8.23
2022-11-09T10:35:06.342Z,7.15
2022-11-09T10:37:42.811Z,8.42
2022-11-09T10:38:56.744Z,48.40
2022-11-09T10:41:48.658Z,7.55
2022-11-09T10:43:15.566Z,8.45
2022-11-09T10:44:42.810Z,9.38
2022-11-09T10:47:26.041Z,9.27
2022-11-09T10:48:55.517Z,8.35
2022-11-09T10:51:51.656Z,9.63
2022-11-09T10:54:40.246Z,7.23
2022-11-09T10:56:20.974Z,7.37
2022-11-09T10:58:01.154Z,8.75
2022-11-09T10:59:39.834Z,13.95
2022-11-09T11:01:16.234Z,11.35
2022-11-09T11:02:46.632Z,8.03
2022-11-09T11:04:23.987Z,9.70
2022-11-09T11:06:01.323Z,8.50
2022-11-09T11:10:22.340Z,10.45
2022-11-09T11:13:12.377Z,9.03
2022-11-09T11:14:45.187Z,6.25
2022-11-09T11:16:28.542Z,6.55
2022-11-09T11:18:19.221Z,7.85
2022-11-09T11:19:47.254Z,8.50
2022-11-09T11:22:37.721Z,7.98
2022-11-09T11:24:20.430Z,7.30
2022-11-09T11:27:19.724Z,8.92
2022-11-09T11:28:51.524Z,7.40
2022-11-09T11:31:40.664Z,6.65
2022-11-09T11:33:17.732Z,8.93
2022-11-09T11:34:59.566Z,10.72
2022-11-09T11:38:11.674Z,7.02
2022-11-09T11:40:01.789Z,7.75
2022-11-09T11:41:48.078Z,12.18
2022-11-09T11:43:28.468Z,7.65
2022-11-09T11:46:42.930Z,8.42
2022-11-09T11:50:27.968Z,9.05
2022-11-09T11:55:16.771Z,9.35
2022-11-09T12:00:11.579Z,10.07
2022-11-09T12:03:33.158Z,8.77
2022-11-09T14:25:54.842Z,8.62
2022-11-09T14:30:39.606Z,9.08
2022-11-09T14:34:02.043Z,9.57
2022-11-09T14:36:50.247Z,10.98
2022-11-09T14:38:22.542Z,10.00
2022-11-09T14:39:51.936Z,10.25
2022-11-09T14:41:27.073Z,9.78
2022-11-09T14:44:21.953Z,11.73
2022-11-09T14:47:18.159Z,13.40
2022-11-09T14:51:38.771Z,11.93
2022-11-09T14:53:06.731Z,12.12
2022-11-09T14:54:34.784Z,11.42
2022-11-09T14:56:05.807Z,11.78
2022-11-09T14:57:33.945Z,10.63
2022-11-09T15:00:28.525Z,12.32
2022-11-09T15:03:29.949Z,12.20
2022-11-09T15:06:19.726Z,12.20
2022-11-09T15:07:48.412Z,12.15
2022-11-09T15:10:36.975Z,10.90
2022-11-09T15:14:58.087Z,11.12
2022-11-09T15:16:33.168Z,11.12
2022-11-09T15:18:00.957Z,9.57
2022-11-09T15:20:47.402Z,9.90
2022-11-09T15:22:52.169Z,11.50
2022-11-09T15:24:21.324Z,11.05
2022-11-09T15:27:27.323Z,16.35
2022-11-09T15:28:55.138Z,15.55
2022-11-09T15:32:11.379Z,18.88
2022-11-09T15:35:06.138Z,15.57
2022-11-09T15:37:53.356Z,16.93
2022-11-09T15:40:39.163Z,15.50
2022-11-09T15:43:43.718Z,14.47
2022-11-09T15:46:36.353Z,13.30
2022-11-09T15:49:24.611Z,18.65
2022-11-09T15:52:11.571Z,15.02
2022-11-09T15:54:54.480Z,11.98
2022-11-09T15:56:24.143Z,14.55
2022-11-09T15:57:54.322Z,17.22
2022-11-09T16:00:46.020Z,20.45
2022-11-09T16:02:14.576Z,23.15
2022-11-09T16:04:56.685Z,18.42
2022-11-09T16:07:53.877Z,22.72
2022-11-09T16:10:39.644Z,25.23
2022-11-09T16:12:08.673Z,21.80
2022-11-09T16:14:50.522Z,24.02
2022-11-09T16:17:34.129Z,25.52
2022-11-09T16:19:01.496Z,24.03
2022-11-09T16:20:29.758Z,24.12
2022-11-09T16:23:16.075Z,22.65
2022-11-09T16:26:10.794Z,23.90
2022-11-09T16:28:55.726Z,22.45
2022-11-09T16:30:24.138Z,24.08
2022-11-09T16:31:52.734Z,24.42
2022-11-09T16:34:34.880Z,20.07
2022-11-09T16:37:31.885Z,21.98
2022-11-09T16:40:18.979Z,23.73
2022-11-09T16:43:03.799Z,23.37
2022-11-09T16:45:51.872Z,23.05
2022-11-09T16:48:37.098Z,23.42
2022-11-09T16:51:19.885Z,21.25
2022-11-09T16:54:21.150Z,28.93
2022-11-09T16:57:04.432Z,23.63
2022-11-09T16:59:46.201Z,22.83
2022-11-09T17:02:29.081Z,22.47
2022-11-09T17:05:13.398Z,22.65
2022-11-09T17:08:18.483Z,27.12
2022-11-09T17:11:05.779Z,25.70
2022-11-09T17:13:59.221Z,23.87
2022-11-09T17:16:41.989Z,23.70
2022-11-09T17:20:49.797Z,23.42
2022-11-09T17:23:33.396Z,26.55
2022-11-09T17:26:17.377Z,27.88
2022-11-09T17:28:59.932Z,22.43
2022-11-09T17:31:41.902Z,21.38
2022-11-09T17:33:10.083Z,26.30
2022-11-09T17:36:00.989Z,24.20
2022-11-09T17:38:43.509Z,23.35
2022-11-09T17:41:26.336Z,24.57
2022-11-09T17:44:09.091Z,20.55
2022-11-09T17:46:52.907Z,23.87
2022-11-09T17:48:21.450Z,24.55
2022-11-09T17:51:24.756Z,20.75
2022-11-09T17:54:06.969Z,24.45
2022-11-09T17:55:36.798Z,25.55
2022-11-09T17:58:20.791Z,20.97
2022-11-09T17:59:48.602Z,24.00
2022-11-09T18:01:19.927Z,25.73
2022-11-09T18:04:07.435Z,25.98
2022-11-09T18:05:40.675Z,24.63
2022-11-09T18:08:22.874Z,25.20
2022-11-09T18:11:06.588Z,26.38
2022-11-09T18:13:49.350Z,24.83
2022-11-09T18:16:31.017Z,25.12
2022-11-09T18:17:58.595Z,23.87
2022-11-09T18:20:40.702Z,23.97
2022-11-09T18:23:25.258Z,24.93
2022-11-09T18:26:09.202Z,27.12
2022-11-09T18:27:38.925Z,25.37
2022-11-09T18:30:23.339Z,24.92
2022-11-09T18:31:53.667Z,26.22
2022-11-09T18:33:20.549Z,24.05
2022-11-09T18:36:07.005Z,24.63
2022-11-09T18:38:52.506Z,25.77
2022-11-09T18:41:36.944Z,24.77
2022-11-09T18:44:20.110Z,25.23
2022-11-09T18:45:59.214Z,27.10
2022-11-09T18:48:42.534Z,26.93
2022-11-09T18:51:25.000Z,26.30
2022-11-09T18:54:07.480Z,26.77
2022-11-09T18:55:35.029Z,26.75
2022-11-09T18:58:20.843Z,31.07
2022-11-09T19:01:05.758Z,26.03
2022-11-09T19:03:56.288Z,28.78
2022-11-09T19:05:24.568Z,28.85
2022-11-09T19:06:53.549Z,28.92
2022-11-09T19:09:38.288Z,31.78
2022-11-09T19:12:24.747Z,28.55
2022-11-09T19:13:52.137Z,30.63
2022-11-09T19:16:34.200Z,28.55
2022-11-09T19:19:17.954Z,28.47
2022-11-09T19:20:46.818Z,29.92
2022-11-09T19:22:18.668Z,29.93
2022-11-09T19:25:00.810Z,28.37
2022-11-09T19:27:43.777Z,29.57
2022-11-09T19:30:29.181Z,31.15
2022-11-09T19:31:57.211Z,33.18
2022-11-09T19:34:42.247Z,32.32
2022-11-09T19:37:26.117Z,29.37
2022-11-09T19:38:55.160Z,29.23
2022-11-09T19:41:37.409Z,27.95
2022-11-09T19:44:20.283Z,29.67
2022-11-09T19:45:47.280Z,28.17
2022-11-09T19:47:14.089Z,31.08
2022-11-09T19:48:46.933Z,31.97
2022-11-09T19:51:31.484Z,31.93
2022-11-09T19:52:59.345Z,30.57
2022-11-09T19:54:26.471Z,30.93
2022-11-09T19:56:01.899Z,34.10
2022-11-09T20:00:12.337Z,27.10
2022-11-09T20:02:58.486Z,31.60
2022-11-09T20:05:41.823Z,30.88
2022-11-09T20:08:28.165Z,35.35
2022-11-09T20:11:18.367Z,30.23
2022-11-09T20:12:51.231Z,33.23
2022-11-09T20:14:20.367Z,29.70
2022-11-09T20:17:04.416Z,34.13
2022-11-09T20:19:53.356Z,34.95
2022-11-09T20:22:35.768Z,31.65
2022-11-09T20:25:19.262Z,31.33
2022-11-09T20:28:02.207Z,33.20
2022-11-09T20:30:46.211Z,32.97
2022-11-09T20:33:28.800Z,29.80
2022-11-09T20:36:11.755Z,31.27
2022-11-09T20:37:39.027Z,31.18
2022-11-09T20:39:06.206Z,31.10
2022-11-09T20:41:48.849Z,36.82
2022-11-09T20:44:30.609Z,33.90
2022-11-09T20:47:30.295Z,34.95
2022-11-09T20:50:04.270Z,34.85
2022-11-09T20:52:46.944Z,34.05
2022-11-09T20:55:31.004Z,34.50
2022-11-09T20:56:59.478Z,32.32
2022-11-09T20:58:27.109Z,30.37
2022-11-09T21:02:31.672Z,31.43
2022-11-09T21:05:13.846Z,30.58
2022-11-09T21:07:55.941Z,33.95
2022-11-09T21:10:37.913Z,30.88
2022-11-09T21:13:36.167Z,32.22
2022-11-09T21:15:04.144Z,30.25
2022-11-09T21:16:32.267Z,26.28
2022-11-09T21:19:15.448Z,24.55
2022-11-09T21:21:59.703Z,22.63
2022-11-09T21:23:28.174Z,22.45
2022-11-09T21:26:47.374Z,25.12
2022-11-09T21:29:52.536Z,27.55
2022-11-09T21:31:21.570Z,27.60
2022-11-09T21:32:49.770Z,29.88
2022-11-09T21:35:31.609Z,30.87
2022-11-09T21:38:34.149Z,29.87
2022-11-09T21:40:02.173Z,31.90
2022-11-09T21:42:56.424Z,31.28
2022-11-09T21:45:40.579Z,33.87
2022-11-09T21:47:08.488Z,25.33
2022-11-09T21:49:50.438Z,28.63
2022-11-09T21:52:32.229Z,29.18
2022-11-09T21:53:59.875Z,31.15
2022-11-09T21:56:43.628Z,24.12
2022-11-09T21:58:11.844Z,22.52
2022-11-09T22:00:53.927Z,22.75
2022-11-09T22:02:22.464Z,26.25
2022-11-09T22:03:51.500Z,24.95
2022-11-09T22:05:22.820Z,23.05
2022-11-09T22:08:33.983Z,23.80
2022-11-09T22:11:27.451Z,26.78
2022-11-09T22:14:44.943Z,26.40
2022-11-09T22:16:14.720Z,31.20
2022-11-09T22:19:17.359Z,30.33
2022-11-09T22:20:54.949Z,27.13
2022-11-09T22:23:37.868Z,30.48
2022-11-09T22:26:23.326Z,29.55
2022-11-09T22:27:51.511Z,30.40
2022-11-09T22:29:19.564Z,32.25
2022-11-09T22:30:46.694Z,27.42
2022-11-09T22:33:32.591Z,23.25
2022-11-09T22:36:15.895Z,23.50
2022-11-09T22:37:43.898Z,21.88
2022-11-09T22:40:27.513Z,24.85
2022-11-09T22:43:10.997Z,22.60
2022-11-09T22:44:40.189Z,23.53
2022-11-09T22:46:16.994Z,25.60
2022-11-09T22:48:59.731Z,28.02
2022-11-09T22:51:42.548Z,28.02
2022-11-09T22:54:25.161Z,30.73
2022-11-09T22:57:10.987Z,31.85
2022-11-09T22:59:53.695Z,29.60
2022-11-09T23:01:22.370Z,30.02
2022-11-09T23:02:50.436Z,28.50
2022-11-09T23:05:32.806Z,26.48
2022-11-09T23:08:16.583Z,24.95
2022-11-09T23:09:43.895Z,23.23
2022-11-09T23:11:15.168Z,22.75
2022-11-09T23:13:58.293Z,23.38
2022-11-09T23:16:42.960Z,22.70
2022-11-09T23:19:43.498Z,21.35
2022-11-09T23:21:11.817Z,23.80
2022-11-09T23:23:56.597Z,26.88
2022-11-09T23:25:42.656Z,27.93
2022-11-09T23:27:10.833Z,28.85
2022-11-09T23:29:54.103Z,26.95
2022-11-09T23:31:26.812Z,28.17
2022-11-09T23:32:54.069Z,27.45
2022-11-09T23:35:35.966Z,30.40
2022-11-09T23:37:02.846Z,26.13
2022-11-09T23:39:48.413Z,22.17
2022-11-09T23:42:30.812Z,20.83
2022-11-09T23:43:57.883Z,21.75
2022-11-09T23:46:40.675Z,21.78
2022-11-09T23:48:14.179Z,20.13
2022-11-09T23:49:41.229Z,19.50
2022-11-09T23:51:10.395Z,20.05
2022-11-09T23:52:38.142Z,22.95
2022-11-09T23:54:05.292Z,21.72
2022-11-09T23:55:32.305Z,24.92
2022-11-09T23:57:01.006Z,26.20
2022-11-09T23:58:29.408Z,25.50
2022-11-09T23:59:56.622Z,24.98
